<?xml version="1.0" encoding="UTF-8" standalone="no" ?> 
<gpx xmlns="http://www.topografix.com/GPX/1/1" xmlns:gpxtpx="http://www.garmin.com/xmlschemas/TrackPointExtension/v1" creator="OruxMaps v.7.4.22" version="1.1" xmlns:xsi="http://www.w3.org/2001/XMLSchema-instance" xsi:schemaLocation="http://www.topografix.com/GPX/1/1 http://www.topografix.com/GPX/1/1/gpx.xsd"> 
<metadata>
 <name>Kramarica z 10. sliko (Jurij_Šoba, 18.02.2025)</name> <link href="http://razmere.e-gora.si"><text>France Sevsek - razmereform.php</text></link>
 <time>2025-02-18T08:51:23Z</time><bounds maxlat="46.4273683" maxlon="14.9183917" minlat="46.4228383" minlon="14.9037600"/> 
</metadata>
 <wpt lat="46.4244433" lon="14.9183300"> <ele>896.83</ele> <time>2025-02-18T08:51:24Z</time> <name><![CDATA[0002245]]></name> <sym>Waypoint</sym> <type>Začetna točka</type> <extensions> <om:oruxmapsextensions xmlns:om="http://www.oruxmaps.com/oruxmapsextensions/1/0"> <om:ext type="ICON" subtype="0">38</om:ext> </om:oruxmapsextensions> </extensions> </wpt>
 <wpt lat="46.4244417" lon="14.9183550"> <ele>885.26</ele> <time>2025-02-18T13:13:46Z</time> <name><![CDATA[0002246]]></name> <desc><![CDATA[<p><br /><h3>Ime: Segment: 1</h3><br />Čas začetka: 09:51 18. feb. 2025<br/>Čas zaključka: 14:09 18. feb. 2025<br/>Razdalja: 5km (04:18)<br/>Čas gibanja: 01:38<br/>Povp. hitrost: 1,16 km/h<br/>Povp. hit. gib.: 2,91 km/h<br/>Max. hitrost: 8,08 km/h<br/>Min. višina: 870 m<br/>Max. višina: 1124 m<br/>Hitrost dviga: 133,5 m/h<br/>Hitrost spusta: −184,4 m/h<br/>Prid. višine: 328 m<br/>Izguba višine: -340 m<br/>Čas dviga: 02:27<br/>Čas spusta: 01:50<br/></p>]]></desc> <sym>Waypoint</sym> <type>Cilj</type> <extensions> <om:oruxmapsextensions xmlns:om="http://www.oruxmaps.com/oruxmapsextensions/1/0"> <om:ext type="ICON" subtype="0">15</om:ext> </om:oruxmapsextensions> </extensions> </wpt>
 <trk>
 <name>Kramarica z 10. sliko (Jurij_Šoba, 18.02.2025)</name> <desc><![CDATA[<p>Čas začetka: 09:51 18. feb. 2025<br/>Čas zaključka: 14:09 18. feb. 2025<br/>Razdalja: 5 km (04:18)<br/>Čas gibanja: 01:38<br/>Povp. hitrost: 1,16 km/h<br/>Povp. hit. gib.: 3,02 km/h<br/>Max. hitrost: 8,08 km/h<br/>Min. višina: 870 m<br/>Max. višina: 1124 m<br/>Hitrost dviga: 128,8 m/h<br/>Hitrost spusta: −182,4 m/h<br/>Prid. višine: 326 m<br/>Izguba višine: -323 m<br/>Čas dviga: 02:31<br/>Čas spusta: 01:46<br/></p><hr align="center" width="480" style="height: 2px; width: 517px"/>]]></desc> <type>Nedefinirano</type> <extensions> <om:oruxmapsextensions xmlns:om="http://www.oruxmaps.com/oruxmapsextensions/1/0"> <om:ext type="TYPE" subtype="0">0</om:ext> <om:ext type="DIFFICULTY">0</om:ext> </om:oruxmapsextensions> </extensions> <trkseg>
 <trkpt lat="46.4244433" lon="14.9183300"> <ele>896.83</ele> <time>2025-02-18T08:51:24Z</time> </trkpt>
 <trkpt lat="46.4242700" lon="14.9182433"> <ele>872.51</ele> <time>2025-02-18T08:55:51Z</time> </trkpt>
 <trkpt lat="46.4240950" lon="14.9183167"> <ele>870.28</ele> <time>2025-02-18T08:56:35Z</time> </trkpt>
 <trkpt lat="46.4239117" lon="14.9183433"> <ele>871.36</ele> <time>2025-02-18T08:57:06Z</time> </trkpt>
 <trkpt lat="46.4237383" lon="14.9182633"> <ele>875.17</ele> <time>2025-02-18T08:58:59Z</time> </trkpt>
 <trkpt lat="46.4238667" lon="14.9180700"> <ele>877.34</ele> <time>2025-02-18T09:00:01Z</time> </trkpt>
 <trkpt lat="46.4239750" lon="14.9178617"> <ele>880.61</ele> <time>2025-02-18T09:00:38Z</time> </trkpt>
 <trkpt lat="46.4241350" lon="14.9177417"> <ele>881.63</ele> <time>2025-02-18T09:02:02Z</time> </trkpt>
 <trkpt lat="46.4242117" lon="14.9175000"> <ele>885.68</ele> <time>2025-02-18T09:02:53Z</time> </trkpt>
 <trkpt lat="46.4242767" lon="14.9172533"> <ele>889.43</ele> <time>2025-02-18T09:03:37Z</time> </trkpt>
 <trkpt lat="46.4242117" lon="14.9169567"> <ele>891.78</ele> <time>2025-02-18T09:04:51Z</time> </trkpt>
 <trkpt lat="46.4242717" lon="14.9167067"> <ele>895.16</ele> <time>2025-02-18T09:05:43Z</time> </trkpt>
 <trkpt lat="46.4242567" lon="14.9164417"> <ele>906.51</ele> <time>2025-02-18T09:07:44Z</time> </trkpt>
 <trkpt lat="46.4242650" lon="14.9161733"> <ele>908.68</ele> <time>2025-02-18T09:08:38Z</time> </trkpt>
 <trkpt lat="46.4242933" lon="14.9159117"> <ele>909.10</ele> <time>2025-02-18T09:09:21Z</time> </trkpt>
 <trkpt lat="46.4242717" lon="14.9156133"> <ele>909.81</ele> <time>2025-02-18T09:10:23Z</time> </trkpt>
 <trkpt lat="46.4243350" lon="14.9153483"> <ele>911.25</ele> <time>2025-02-18T09:10:51Z</time> </trkpt>
 <trkpt lat="46.4245050" lon="14.9152600"> <ele>911.15</ele> <time>2025-02-18T09:11:36Z</time> </trkpt>
 <trkpt lat="46.4246433" lon="14.9150333"> <ele>915.16</ele> <time>2025-02-18T09:14:27Z</time> </trkpt>
 <trkpt lat="46.4246233" lon="14.9147667"> <ele>916.08</ele> <time>2025-02-18T09:16:29Z</time> </trkpt>
 <trkpt lat="46.4245783" lon="14.9144967"> <ele>919.49</ele> <time>2025-02-18T09:18:47Z</time> </trkpt>
 <trkpt lat="46.4243467" lon="14.9143067"> <ele>911.75</ele> <time>2025-02-18T09:21:22Z</time> </trkpt>
 <trkpt lat="46.4241917" lon="14.9141633"> <ele>909.48</ele> <time>2025-02-18T09:21:46Z</time> </trkpt>
 <trkpt lat="46.4240233" lon="14.9140700"> <ele>908.74</ele> <time>2025-02-18T09:22:27Z</time> </trkpt>
 <trkpt lat="46.4238550" lon="14.9139717"> <ele>906.94</ele> <time>2025-02-18T09:23:03Z</time> </trkpt>
 <trkpt lat="46.4236933" lon="14.9138567"> <ele>906.20</ele> <time>2025-02-18T09:24:48Z</time> </trkpt>
 <trkpt lat="46.4236983" lon="14.9135583"> <ele>920.56</ele> <time>2025-02-18T09:26:11Z</time> </trkpt>
 <trkpt lat="46.4236583" lon="14.9133017"> <ele>922.75</ele> <time>2025-02-18T09:27:04Z</time> </trkpt>
 <trkpt lat="46.4234350" lon="14.9131133"> <ele>921.96</ele> <time>2025-02-18T09:29:43Z</time> </trkpt>
 <trkpt lat="46.4234017" lon="14.9128567"> <ele>924.93</ele> <time>2025-02-18T09:34:04Z</time> </trkpt>
 <trkpt lat="46.4233650" lon="14.9126000"> <ele>924.95</ele> <time>2025-02-18T09:36:33Z</time> </trkpt>
 <trkpt lat="46.4233000" lon="14.9123533"> <ele>924.25</ele> <time>2025-02-18T09:37:21Z</time> </trkpt>
 <trkpt lat="46.4232017" lon="14.9121167"> <ele>923.34</ele> <time>2025-02-18T09:37:49Z</time> </trkpt>
 <trkpt lat="46.4231233" lon="14.9118817"> <ele>924.90</ele> <time>2025-02-18T09:38:19Z</time> </trkpt>
 <trkpt lat="46.4230983" lon="14.9116217"> <ele>929.87</ele> <time>2025-02-18T09:38:48Z</time> </trkpt>
 <trkpt lat="46.4230633" lon="14.9113567"> <ele>933.35</ele> <time>2025-02-18T09:39:12Z</time> </trkpt>
 <trkpt lat="46.4230383" lon="14.9110933"> <ele>939.52</ele> <time>2025-02-18T09:39:38Z</time> </trkpt>
 <trkpt lat="46.4230133" lon="14.9108317"> <ele>944.12</ele> <time>2025-02-18T09:40:08Z</time> </trkpt>
 <trkpt lat="46.4230317" lon="14.9105583"> <ele>950.27</ele> <time>2025-02-18T09:40:33Z</time> </trkpt>
 <trkpt lat="46.4230267" lon="14.9102950"> <ele>957.75</ele> <time>2025-02-18T09:40:52Z</time> </trkpt>
 <trkpt lat="46.4230750" lon="14.9100333"> <ele>967.00</ele> <time>2025-02-18T09:41:13Z</time> </trkpt>
 <trkpt lat="46.4231850" lon="14.9098083"> <ele>978.25</ele> <time>2025-02-18T09:41:30Z</time> </trkpt>
 <trkpt lat="46.4233317" lon="14.9096433"> <ele>987.84</ele> <time>2025-02-18T09:41:48Z</time> </trkpt>
 <trkpt lat="46.4235767" lon="14.9095017"> <ele>1007.10</ele> <time>2025-02-18T09:42:08Z</time> </trkpt>
 <trkpt lat="46.4237317" lon="14.9093517"> <ele>1029.67</ele> <time>2025-02-18T09:42:31Z</time> </trkpt>
 <trkpt lat="46.4239100" lon="14.9092233"> <ele>1037.45</ele> <time>2025-02-18T09:44:12Z</time> </trkpt>
 <trkpt lat="46.4240700" lon="14.9093550"> <ele>1036.08</ele> <time>2025-02-18T09:48:00Z</time> </trkpt>
 <trkpt lat="46.4242250" lon="14.9092183"> <ele>1040.04</ele> <time>2025-02-18T09:52:19Z</time> </trkpt>
 <trkpt lat="46.4243700" lon="14.9090633"> <ele>1044.39</ele> <time>2025-02-18T09:54:23Z</time> </trkpt>
 <trkpt lat="46.4245250" lon="14.9089250"> <ele>1048.70</ele> <time>2025-02-18T09:54:58Z</time> </trkpt>
 <trkpt lat="46.4246833" lon="14.9087883"> <ele>1053.40</ele> <time>2025-02-18T09:55:52Z</time> </trkpt>
 <trkpt lat="46.4248283" lon="14.9086233"> <ele>1056.37</ele> <time>2025-02-18T09:56:26Z</time> </trkpt>
 <trkpt lat="46.4249067" lon="14.9083833"> <ele>1060.73</ele> <time>2025-02-18T09:57:12Z</time> </trkpt>
 <trkpt lat="46.4249033" lon="14.9080917"> <ele>1061.70</ele> <time>2025-02-18T09:57:56Z</time> </trkpt>
 <trkpt lat="46.4250467" lon="14.9079200"> <ele>1067.03</ele> <time>2025-02-18T09:58:35Z</time> </trkpt>
 <trkpt lat="46.4251800" lon="14.9077383"> <ele>1069.84</ele> <time>2025-02-18T09:59:08Z</time> </trkpt>
 <trkpt lat="46.4253317" lon="14.9075917"> <ele>1069.59</ele> <time>2025-02-18T09:59:43Z</time> </trkpt>
 <trkpt lat="46.4254783" lon="14.9074383"> <ele>1070.50</ele> <time>2025-02-18T10:00:35Z</time> </trkpt>
 <trkpt lat="46.4255533" lon="14.9072000"> <ele>1069.98</ele> <time>2025-02-18T10:02:27Z</time> </trkpt>
 <trkpt lat="46.4256217" lon="14.9069517"> <ele>1077.20</ele> <time>2025-02-18T10:03:55Z</time> </trkpt>
 <trkpt lat="46.4258067" lon="14.9069383"> <ele>1068.87</ele> <time>2025-02-18T10:05:17Z</time> </trkpt>
 <trkpt lat="46.4258883" lon="14.9072800"> <ele>1079.21</ele> <time>2025-02-18T10:06:40Z</time> </trkpt>
 <trkpt lat="46.4259783" lon="14.9075150"> <ele>1074.13</ele> <time>2025-02-18T10:09:56Z</time> </trkpt>
 <trkpt lat="46.4258500" lon="14.9073283"> <ele>1069.77</ele> <time>2025-02-18T10:10:54Z</time> </trkpt>
 <trkpt lat="46.4260350" lon="14.9073367"> <ele>1079.58</ele> <time>2025-02-18T10:12:18Z</time> </trkpt>
 <trkpt lat="46.4262100" lon="14.9074183"> <ele>1082.29</ele> <time>2025-02-18T10:13:02Z</time> </trkpt>
 <trkpt lat="46.4263933" lon="14.9074167"> <ele>1085.06</ele> <time>2025-02-18T10:13:39Z</time> </trkpt>
 <trkpt lat="46.4265633" lon="14.9073150"> <ele>1085.99</ele> <time>2025-02-18T10:14:17Z</time> </trkpt>
 <trkpt lat="46.4267283" lon="14.9071867"> <ele>1086.37</ele> <time>2025-02-18T10:14:51Z</time> </trkpt>
 <trkpt lat="46.4268917" lon="14.9069767"> <ele>1087.65</ele> <time>2025-02-18T10:15:32Z</time> </trkpt>
 <trkpt lat="46.4270467" lon="14.9068400"> <ele>1089.68</ele> <time>2025-02-18T10:16:05Z</time> </trkpt>
 <trkpt lat="46.4272017" lon="14.9067000"> <ele>1085.66</ele> <time>2025-02-18T10:16:54Z</time> </trkpt>
 <trkpt lat="46.4273683" lon="14.9065883"> <ele>1087.84</ele> <time>2025-02-18T10:18:51Z</time> </trkpt>
 <trkpt lat="46.4271683" lon="14.9066083"> <ele>1089.74</ele> <time>2025-02-18T10:20:17Z</time> </trkpt>
 <trkpt lat="46.4269967" lon="14.9067050"> <ele>1085.86</ele> <time>2025-02-18T10:24:27Z</time> </trkpt>
 <trkpt lat="46.4268250" lon="14.9067983"> <ele>1090.39</ele> <time>2025-02-18T10:24:53Z</time> </trkpt>
 <trkpt lat="46.4266533" lon="14.9068967"> <ele>1094.86</ele> <time>2025-02-18T10:25:22Z</time> </trkpt>
 <trkpt lat="46.4264733" lon="14.9069583"> <ele>1097.31</ele> <time>2025-02-18T10:25:55Z</time> </trkpt>
 <trkpt lat="46.4262933" lon="14.9069150"> <ele>1097.73</ele> <time>2025-02-18T10:26:27Z</time> </trkpt>
 <trkpt lat="46.4261267" lon="14.9068067"> <ele>1097.52</ele> <time>2025-02-18T10:26:59Z</time> </trkpt>
 <trkpt lat="46.4261350" lon="14.9065383"> <ele>1094.68</ele> <time>2025-02-18T10:27:30Z</time> </trkpt>
 <trkpt lat="46.4261817" lon="14.9062783"> <ele>1097.73</ele> <time>2025-02-18T10:28:37Z</time> </trkpt>
 <trkpt lat="46.4262500" lon="14.9060333"> <ele>1097.81</ele> <time>2025-02-18T10:29:08Z</time> </trkpt>
 <trkpt lat="46.4262550" lon="14.9057617"> <ele>1101.17</ele> <time>2025-02-18T10:29:43Z</time> </trkpt>
 <trkpt lat="46.4262517" lon="14.9055000"> <ele>1104.59</ele> <time>2025-02-18T10:30:17Z</time> </trkpt>
 <trkpt lat="46.4262250" lon="14.9052417"> <ele>1104.60</ele> <time>2025-02-18T10:30:53Z</time> </trkpt>
 <trkpt lat="46.4262750" lon="14.9049850"> <ele>1106.81</ele> <time>2025-02-18T10:31:32Z</time> </trkpt>
 <trkpt lat="46.4263100" lon="14.9047217"> <ele>1109.47</ele> <time>2025-02-18T10:32:03Z</time> </trkpt>
 <trkpt lat="46.4262233" lon="14.9044867"> <ele>1112.65</ele> <time>2025-02-18T10:32:36Z</time> </trkpt>
 <trkpt lat="46.4261450" lon="14.9042450"> <ele>1112.02</ele> <time>2025-02-18T10:33:10Z</time> </trkpt>
 <trkpt lat="46.4260433" lon="14.9040233"> <ele>1113.16</ele> <time>2025-02-18T10:33:52Z</time> </trkpt>
 <trkpt lat="46.4260500" lon="14.9037600"> <ele>1113.01</ele> <time>2025-02-18T10:34:40Z</time> </trkpt>
 <trkpt lat="46.4259617" lon="14.9039933"> <ele>1124.52</ele> <time>2025-02-18T10:43:30Z</time> </trkpt>
 <trkpt lat="46.4258100" lon="14.9041650"> <ele>1120.24</ele> <time>2025-02-18T10:44:11Z</time> </trkpt>
 <trkpt lat="46.4257067" lon="14.9043817"> <ele>1122.11</ele> <time>2025-02-18T10:44:41Z</time> </trkpt>
 <trkpt lat="46.4255767" lon="14.9046083"> <ele>1121.33</ele> <time>2025-02-18T10:45:22Z</time> </trkpt>
 <trkpt lat="46.4254833" lon="14.9048417"> <ele>1115.05</ele> <time>2025-02-18T10:45:46Z</time> </trkpt>
 <trkpt lat="46.4253833" lon="14.9050633"> <ele>1105.08</ele> <time>2025-02-18T10:46:04Z</time> </trkpt>
 <trkpt lat="46.4252650" lon="14.9052600"> <ele>1102.85</ele> <time>2025-02-18T10:46:38Z</time> </trkpt>
 <trkpt lat="46.4251700" lon="14.9054833"> <ele>1101.17</ele> <time>2025-02-18T10:46:56Z</time> </trkpt>
 <trkpt lat="46.4253500" lon="14.9055567"> <ele>1104.97</ele> <time>2025-02-18T10:47:36Z</time> </trkpt>
 <trkpt lat="46.4255433" lon="14.9055900"> <ele>1104.77</ele> <time>2025-02-18T10:48:04Z</time> </trkpt>
 <trkpt lat="46.4257283" lon="14.9055983"> <ele>1103.18</ele> <time>2025-02-18T10:48:23Z</time> </trkpt>
 <trkpt lat="46.4259083" lon="14.9056117"> <ele>1100.14</ele> <time>2025-02-18T10:48:57Z</time> </trkpt>
 <trkpt lat="46.4259317" lon="14.9058800"> <ele>1096.84</ele> <time>2025-02-18T10:49:28Z</time> </trkpt>
 <trkpt lat="46.4257517" lon="14.9059283"> <ele>1096.23</ele> <time>2025-02-18T10:49:58Z</time> </trkpt>
 <trkpt lat="46.4256217" lon="14.9061167"> <ele>1093.78</ele> <time>2025-02-18T10:50:19Z</time> </trkpt>
 <trkpt lat="46.4254800" lon="14.9062967"> <ele>1087.77</ele> <time>2025-02-18T10:50:40Z</time> </trkpt>
 <trkpt lat="46.4253300" lon="14.9064633"> <ele>1083.78</ele> <time>2025-02-18T10:51:01Z</time> </trkpt>
 <trkpt lat="46.4252067" lon="14.9066600"> <ele>1083.16</ele> <time>2025-02-18T10:51:35Z</time> </trkpt>
 <trkpt lat="46.4252267" lon="14.9069217"> <ele>1087.89</ele> <time>2025-02-18T10:52:08Z</time> </trkpt>
 <trkpt lat="46.4253850" lon="14.9067783"> <ele>1083.31</ele> <time>2025-02-18T10:52:30Z</time> </trkpt>
 <trkpt lat="46.4255700" lon="14.9068067"> <ele>1082.57</ele> <time>2025-02-18T10:52:52Z</time> </trkpt>
 <trkpt lat="46.4255267" lon="14.9070617"> <ele>1078.96</ele> <time>2025-02-18T10:53:44Z</time> </trkpt>
 <trkpt lat="46.4254800" lon="14.9073217"> <ele>1076.03</ele> <time>2025-02-18T10:53:59Z</time> </trkpt>
 <trkpt lat="46.4253917" lon="14.9075533"> <ele>1066.05</ele> <time>2025-02-18T10:54:19Z</time> </trkpt>
 <trkpt lat="46.4252283" lon="14.9076633"> <ele>1060.85</ele> <time>2025-02-18T10:54:38Z</time> </trkpt>
 <trkpt lat="46.4251000" lon="14.9078583"> <ele>1059.59</ele> <time>2025-02-18T10:55:01Z</time> </trkpt>
 <trkpt lat="46.4249483" lon="14.9080150"> <ele>1056.26</ele> <time>2025-02-18T10:55:21Z</time> </trkpt>
 <trkpt lat="46.4248700" lon="14.9082533"> <ele>1052.69</ele> <time>2025-02-18T10:55:44Z</time> </trkpt>
 <trkpt lat="46.4248267" lon="14.9085200"> <ele>1049.53</ele> <time>2025-02-18T10:56:13Z</time> </trkpt>
 <trkpt lat="46.4247417" lon="14.9087500"> <ele>1049.00</ele> <time>2025-02-18T10:56:30Z</time> </trkpt>
 <trkpt lat="46.4245867" lon="14.9088933"> <ele>1049.99</ele> <time>2025-02-18T10:56:55Z</time> </trkpt>
 <trkpt lat="46.4244400" lon="14.9090500"> <ele>1052.48</ele> <time>2025-02-18T10:57:21Z</time> </trkpt>
 <trkpt lat="46.4242800" lon="14.9091917"> <ele>1046.78</ele> <time>2025-02-18T10:57:48Z</time> </trkpt>
 <trkpt lat="46.4241117" lon="14.9092967"> <ele>1041.70</ele> <time>2025-02-18T10:58:13Z</time> </trkpt>
 <trkpt lat="46.4239417" lon="14.9091900"> <ele>1038.88</ele> <time>2025-02-18T11:00:56Z</time> </trkpt>
 <trkpt lat="46.4238700" lon="14.9089183"> <ele>1040.84</ele> <time>2025-02-18T11:13:01Z</time> </trkpt>
 <trkpt lat="46.4238917" lon="14.9091867"> <ele>1037.83</ele> <time>2025-02-18T11:13:23Z</time> </trkpt>
 <trkpt lat="46.4239450" lon="14.9094383"> <ele>1041.01</ele> <time>2025-02-18T11:18:36Z</time> </trkpt>
 <trkpt lat="46.4241000" lon="14.9092883"> <ele>1031.88</ele> <time>2025-02-18T11:21:51Z</time> </trkpt>
 <trkpt lat="46.4242817" lon="14.9092267"> <ele>1031.54</ele> <time>2025-02-18T11:22:27Z</time> </trkpt>
 <trkpt lat="46.4244617" lon="14.9092050"> <ele>1033.10</ele> <time>2025-02-18T11:22:55Z</time> </trkpt>
 <trkpt lat="46.4246233" lon="14.9090733"> <ele>1033.04</ele> <time>2025-02-18T11:23:18Z</time> </trkpt>
 <trkpt lat="46.4248067" lon="14.9090750"> <ele>1033.11</ele> <time>2025-02-18T11:23:47Z</time> </trkpt>
 <trkpt lat="46.4250033" lon="14.9090100"> <ele>1025.68</ele> <time>2025-02-18T11:29:49Z</time> </trkpt>
 <trkpt lat="46.4250667" lon="14.9092717"> <ele>1025.92</ele> <time>2025-02-18T11:32:37Z</time> </trkpt>
 <trkpt lat="46.4251033" lon="14.9095317"> <ele>1024.69</ele> <time>2025-02-18T11:32:52Z</time> </trkpt>
 <trkpt lat="46.4251117" lon="14.9098083"> <ele>1023.98</ele> <time>2025-02-18T11:33:06Z</time> </trkpt>
 <trkpt lat="46.4251267" lon="14.9100733"> <ele>1022.28</ele> <time>2025-02-18T11:33:18Z</time> </trkpt>
 <trkpt lat="46.4252817" lon="14.9102417"> <ele>1018.58</ele> <time>2025-02-18T11:33:36Z</time> </trkpt>
 <trkpt lat="46.4254800" lon="14.9103033"> <ele>1014.26</ele> <time>2025-02-18T11:33:48Z</time> </trkpt>
 <trkpt lat="46.4255500" lon="14.9105450"> <ele>1012.33</ele> <time>2025-02-18T11:34:06Z</time> </trkpt>
 <trkpt lat="46.4257133" lon="14.9107117"> <ele>1007.97</ele> <time>2025-02-18T11:34:21Z</time> </trkpt>
 <trkpt lat="46.4258083" lon="14.9109583"> <ele>1005.91</ele> <time>2025-02-18T11:34:28Z</time> </trkpt>
 <trkpt lat="46.4257433" lon="14.9107150"> <ele>1005.03</ele> <time>2025-02-18T11:43:25Z</time> </trkpt>
 <trkpt lat="46.4255967" lon="14.9105567"> <ele>1008.75</ele> <time>2025-02-18T11:44:24Z</time> </trkpt>
 <trkpt lat="46.4255133" lon="14.9103167"> <ele>1011.21</ele> <time>2025-02-18T11:45:39Z</time> </trkpt>
 <trkpt lat="46.4254650" lon="14.9100567"> <ele>1015.57</ele> <time>2025-02-18T11:46:16Z</time> </trkpt>
 <trkpt lat="46.4253317" lon="14.9098800"> <ele>1023.12</ele> <time>2025-02-18T11:47:44Z</time> </trkpt>
 <trkpt lat="46.4251850" lon="14.9097150"> <ele>1027.49</ele> <time>2025-02-18T11:48:16Z</time> </trkpt>
 <trkpt lat="46.4250950" lon="14.9094850"> <ele>1030.23</ele> <time>2025-02-18T11:48:58Z</time> </trkpt>
 <trkpt lat="46.4251100" lon="14.9092233"> <ele>1031.15</ele> <time>2025-02-18T11:49:24Z</time> </trkpt>
 <trkpt lat="46.4250433" lon="14.9089800"> <ele>1033.96</ele> <time>2025-02-18T11:49:52Z</time> </trkpt>
 <trkpt lat="46.4250483" lon="14.9092450"> <ele>1034.54</ele> <time>2025-02-18T11:56:16Z</time> </trkpt>
 <trkpt lat="46.4250450" lon="14.9095067"> <ele>1030.54</ele> <time>2025-02-18T11:56:30Z</time> </trkpt>
 <trkpt lat="46.4250350" lon="14.9097750"> <ele>1027.48</ele> <time>2025-02-18T11:56:42Z</time> </trkpt>
 <trkpt lat="46.4250233" lon="14.9100550"> <ele>1023.13</ele> <time>2025-02-18T11:56:53Z</time> </trkpt>
 <trkpt lat="46.4249450" lon="14.9103250"> <ele>1019.34</ele> <time>2025-02-18T11:57:03Z</time> </trkpt>
 <trkpt lat="46.4248600" lon="14.9105550"> <ele>1016.02</ele> <time>2025-02-18T11:57:12Z</time> </trkpt>
 <trkpt lat="46.4248150" lon="14.9108317"> <ele>1010.30</ele> <time>2025-02-18T11:57:29Z</time> </trkpt>
 <trkpt lat="46.4249533" lon="14.9110067"> <ele>1003.63</ele> <time>2025-02-18T11:58:40Z</time> </trkpt>
 <trkpt lat="46.4248650" lon="14.9107433"> <ele>1011.98</ele> <time>2025-02-18T12:05:15Z</time> </trkpt>
 <trkpt lat="46.4248650" lon="14.9104767"> <ele>1015.09</ele> <time>2025-02-18T12:06:25Z</time> </trkpt>
 <trkpt lat="46.4249733" lon="14.9102550"> <ele>1017.79</ele> <time>2025-02-18T12:07:13Z</time> </trkpt>
 <trkpt lat="46.4250417" lon="14.9100117"> <ele>1028.01</ele> <time>2025-02-18T12:07:46Z</time> </trkpt>
 <trkpt lat="46.4250783" lon="14.9097500"> <ele>1032.26</ele> <time>2025-02-18T12:08:38Z</time> </trkpt>
 <trkpt lat="46.4250900" lon="14.9094867"> <ele>1034.30</ele> <time>2025-02-18T12:09:15Z</time> </trkpt>
 <trkpt lat="46.4250900" lon="14.9092200"> <ele>1039.10</ele> <time>2025-02-18T12:09:43Z</time> </trkpt>
 <trkpt lat="46.4250383" lon="14.9089667"> <ele>1038.38</ele> <time>2025-02-18T12:10:37Z</time> </trkpt>
 <trkpt lat="46.4251350" lon="14.9091950"> <ele>1035.80</ele> <time>2025-02-18T12:15:52Z</time> </trkpt>
 <trkpt lat="46.4252483" lon="14.9094100"> <ele>1031.40</ele> <time>2025-02-18T12:16:11Z</time> </trkpt>
 <trkpt lat="46.4253000" lon="14.9096633"> <ele>1024.83</ele> <time>2025-02-18T12:16:30Z</time> </trkpt>
 <trkpt lat="46.4254350" lon="14.9098600"> <ele>1015.90</ele> <time>2025-02-18T12:17:09Z</time> </trkpt>
 <trkpt lat="46.4254600" lon="14.9101233"> <ele>1012.45</ele> <time>2025-02-18T12:18:18Z</time> </trkpt>
 <trkpt lat="46.4254750" lon="14.9103867"> <ele>1003.92</ele> <time>2025-02-18T12:19:20Z</time> </trkpt>
 <trkpt lat="46.4256150" lon="14.9105633"> <ele>1001.81</ele> <time>2025-02-18T12:19:30Z</time> </trkpt>
 <trkpt lat="46.4257433" lon="14.9107800"> <ele>998.06</ele> <time>2025-02-18T12:19:38Z</time> </trkpt>
 <trkpt lat="46.4256417" lon="14.9105550"> <ele>1007.42</ele> <time>2025-02-18T12:27:07Z</time> </trkpt>
 <trkpt lat="46.4255467" lon="14.9103333"> <ele>1010.33</ele> <time>2025-02-18T12:27:39Z</time> </trkpt>
 <trkpt lat="46.4253717" lon="14.9102450"> <ele>1014.27</ele> <time>2025-02-18T12:28:21Z</time> </trkpt>
 <trkpt lat="46.4252050" lon="14.9101467"> <ele>1017.00</ele> <time>2025-02-18T12:29:01Z</time> </trkpt>
 <trkpt lat="46.4251433" lon="14.9098933"> <ele>1022.26</ele> <time>2025-02-18T12:29:36Z</time> </trkpt>
 <trkpt lat="46.4249633" lon="14.9098417"> <ele>1019.56</ele> <time>2025-02-18T12:30:53Z</time> </trkpt>
 <trkpt lat="46.4247983" lon="14.9097183"> <ele>1023.03</ele> <time>2025-02-18T12:31:14Z</time> </trkpt>
 <trkpt lat="46.4246633" lon="14.9095383"> <ele>1026.36</ele> <time>2025-02-18T12:31:51Z</time> </trkpt>
 <trkpt lat="46.4245150" lon="14.9093733"> <ele>1026.75</ele> <time>2025-02-18T12:32:17Z</time> </trkpt>
 <trkpt lat="46.4243783" lon="14.9092017"> <ele>1031.02</ele> <time>2025-02-18T12:33:05Z</time> </trkpt>
 <trkpt lat="46.4241950" lon="14.9092150"> <ele>1035.43</ele> <time>2025-02-18T12:34:19Z</time> </trkpt>
 <trkpt lat="46.4240117" lon="14.9091833"> <ele>1035.16</ele> <time>2025-02-18T12:34:47Z</time> </trkpt>
 <trkpt lat="46.4238333" lon="14.9091300"> <ele>1037.22</ele> <time>2025-02-18T12:44:28Z</time> </trkpt>
 <trkpt lat="46.4236667" lon="14.9092483"> <ele>1040.16</ele> <time>2025-02-18T12:45:04Z</time> </trkpt>
 <trkpt lat="46.4235600" lon="14.9094650"> <ele>1038.61</ele> <time>2025-02-18T12:45:43Z</time> </trkpt>
 <trkpt lat="46.4234317" lon="14.9096683"> <ele>1036.45</ele> <time>2025-02-18T12:46:03Z</time> </trkpt>
 <trkpt lat="46.4233417" lon="14.9099050"> <ele>1036.01</ele> <time>2025-02-18T12:46:26Z</time> </trkpt>
 <trkpt lat="46.4232567" lon="14.9101400"> <ele>1036.47</ele> <time>2025-02-18T12:46:51Z</time> </trkpt>
 <trkpt lat="46.4232600" lon="14.9104017"> <ele>1036.32</ele> <time>2025-02-18T12:47:15Z</time> </trkpt>
 <trkpt lat="46.4232517" lon="14.9106667"> <ele>1036.95</ele> <time>2025-02-18T12:47:37Z</time> </trkpt>
 <trkpt lat="46.4232267" lon="14.9109283"> <ele>1038.25</ele> <time>2025-02-18T12:47:57Z</time> </trkpt>
 <trkpt lat="46.4232050" lon="14.9111983"> <ele>1036.42</ele> <time>2025-02-18T12:48:16Z</time> </trkpt>
 <trkpt lat="46.4231467" lon="14.9114550"> <ele>1035.80</ele> <time>2025-02-18T12:48:37Z</time> </trkpt>
 <trkpt lat="46.4230700" lon="14.9117017"> <ele>1035.13</ele> <time>2025-02-18T12:48:59Z</time> </trkpt>
 <trkpt lat="46.4229633" lon="14.9119367"> <ele>1035.41</ele> <time>2025-02-18T12:49:18Z</time> </trkpt>
 <trkpt lat="46.4228383" lon="14.9121283"> <ele>1035.14</ele> <time>2025-02-18T12:49:38Z</time> </trkpt>
 <trkpt lat="46.4228767" lon="14.9123850"> <ele>1035.44</ele> <time>2025-02-18T12:52:08Z</time> </trkpt>
 <trkpt lat="46.4230567" lon="14.9124083"> <ele>1032.25</ele> <time>2025-02-18T12:52:32Z</time> </trkpt>
 <trkpt lat="46.4232267" lon="14.9125167"> <ele>1027.26</ele> <time>2025-02-18T12:52:59Z</time> </trkpt>
 <trkpt lat="46.4233633" lon="14.9126950"> <ele>1019.78</ele> <time>2025-02-18T12:53:32Z</time> </trkpt>
 <trkpt lat="46.4233700" lon="14.9129583"> <ele>1010.31</ele> <time>2025-02-18T12:54:02Z</time> </trkpt>
 <trkpt lat="46.4233500" lon="14.9132200"> <ele>1008.25</ele> <time>2025-02-18T12:54:29Z</time> </trkpt>
 <trkpt lat="46.4234533" lon="14.9134433"> <ele>1004.77</ele> <time>2025-02-18T12:54:52Z</time> </trkpt>
 <trkpt lat="46.4236317" lon="14.9134867"> <ele>1001.15</ele> <time>2025-02-18T12:55:23Z</time> </trkpt>
 <trkpt lat="46.4238117" lon="14.9134783"> <ele>998.05</ele> <time>2025-02-18T12:55:46Z</time> </trkpt>
 <trkpt lat="46.4239500" lon="14.9136483"> <ele>989.40</ele> <time>2025-02-18T12:56:08Z</time> </trkpt>
 <trkpt lat="46.4241267" lon="14.9137067"> <ele>981.84</ele> <time>2025-02-18T12:56:29Z</time> </trkpt>
 <trkpt lat="46.4243033" lon="14.9137933"> <ele>979.10</ele> <time>2025-02-18T12:56:54Z</time> </trkpt>
 <trkpt lat="46.4244500" lon="14.9139567"> <ele>981.12</ele> <time>2025-02-18T12:57:17Z</time> </trkpt>
 <trkpt lat="46.4245300" lon="14.9141967"> <ele>979.81</ele> <time>2025-02-18T12:57:40Z</time> </trkpt>
 <trkpt lat="46.4245750" lon="14.9144517"> <ele>975.26</ele> <time>2025-02-18T12:58:11Z</time> </trkpt>
 <trkpt lat="46.4246300" lon="14.9147100"> <ele>970.84</ele> <time>2025-02-18T12:58:34Z</time> </trkpt>
 <trkpt lat="46.4246433" lon="14.9149767"> <ele>965.36</ele> <time>2025-02-18T12:58:58Z</time> </trkpt>
 <trkpt lat="46.4245450" lon="14.9152033"> <ele>959.04</ele> <time>2025-02-18T12:59:23Z</time> </trkpt>
 <trkpt lat="46.4246450" lon="14.9154367"> <ele>953.42</ele> <time>2025-02-18T12:59:41Z</time> </trkpt>
 <trkpt lat="46.4244650" lon="14.9153700"> <ele>947.90</ele> <time>2025-02-18T13:00:14Z</time> </trkpt>
 <trkpt lat="46.4242817" lon="14.9153267"> <ele>944.75</ele> <time>2025-02-18T13:00:37Z</time> </trkpt>
 <trkpt lat="46.4242233" lon="14.9155767"> <ele>941.21</ele> <time>2025-02-18T13:01:00Z</time> </trkpt>
 <trkpt lat="46.4242450" lon="14.9158417"> <ele>938.52</ele> <time>2025-02-18T13:01:25Z</time> </trkpt>
 <trkpt lat="46.4242633" lon="14.9161050"> <ele>931.01</ele> <time>2025-02-18T13:01:51Z</time> </trkpt>
 <trkpt lat="46.4242600" lon="14.9163683"> <ele>925.52</ele> <time>2025-02-18T13:02:13Z</time> </trkpt>
 <trkpt lat="46.4242117" lon="14.9166350"> <ele>922.52</ele> <time>2025-02-18T13:02:34Z</time> </trkpt>
 <trkpt lat="46.4241767" lon="14.9169033"> <ele>917.59</ele> <time>2025-02-18T13:02:57Z</time> </trkpt>
 <trkpt lat="46.4242333" lon="14.9171517"> <ele>908.17</ele> <time>2025-02-18T13:03:32Z</time> </trkpt>
 <trkpt lat="46.4243067" lon="14.9173950"> <ele>904.57</ele> <time>2025-02-18T13:03:53Z</time> </trkpt>
 <trkpt lat="46.4241617" lon="14.9175650"> <ele>902.69</ele> <time>2025-02-18T13:04:13Z</time> </trkpt>
 <trkpt lat="46.4242433" lon="14.9178000"> <ele>900.06</ele> <time>2025-02-18T13:05:07Z</time> </trkpt>
 <trkpt lat="46.4240600" lon="14.9177617"> <ele>901.30</ele> <time>2025-02-18T13:06:56Z</time> </trkpt>
 <trkpt lat="46.4239217" lon="14.9179317"> <ele>904.67</ele> <time>2025-02-18T13:07:52Z</time> </trkpt>
 <trkpt lat="46.4239700" lon="14.9181850"> <ele>898.57</ele> <time>2025-02-18T13:08:22Z</time> </trkpt>
 <trkpt lat="46.4240800" lon="14.9183917"> <ele>888.99</ele> <time>2025-02-18T13:08:52Z</time> </trkpt>
 <trkpt lat="46.4242600" lon="14.9183367"> <ele>888.47</ele> <time>2025-02-18T13:09:15Z</time> </trkpt>
 <trkpt lat="46.4244417" lon="14.9183550"> <ele>885.26</ele> <time>2025-02-18T13:09:51Z</time> </trkpt>
 </trkseg>
 </trk>
 </gpx> 